Date,TemperatureHighF,TemperatureAvgF,TemperatureLowF,DewpointHighF,DewpointAvgF,DewpointLowF,HumidityHigh,HumidityAvg,HumidityLow,PressureMaxIn,PressureMinIn,WindSpeedMaxMPH,WindSpeedAvgMPH,GustSpeedMaxMPH,PrecipitationSumIn
2013-1-1,49,45,41,40,30,17,87,59,31,30.01,29.84,15,1,15,0.13
2013-1-2,43,39,36,36,31,-12,88,74,10,30.18,29.93,4,1,4,0.22
2013-1-3,42,35,26,24,11,-8,76,40,13,30.23,30.13,5,1,5,0.00
2013-1-4,50,36,24,25,14,-1,81,47,12,30.22,30.09,8,2,8,0.00
2013-1-5,69,39,25,25,12,-4,69,40,10,30.35,30.16,24,1,24,0.00
2013-1-6,55,44,36,35,27,19,82,54,25,30.19,29.99,6,1,6,0.04
2013-1-7,56,41,29,30,21,7,75,49,14,30.42,30.09,8,1,8,0.00
2013-1-8,54,39,25,33,25,20,82,61,30,30.44,30.34,5,1,5,0.00
2013-1-9,69,56,37,47,40,32,81,58,36,30.38,30.22,52,2,52,0.00
2013-1-10,62,48,38,47,28,3,92,56,10,30.54,30.34,8,1,8,0.00
2013-1-11,50,40,34,49,34,26,96,78,64,30.47,29.86,4,1,4,0.08
2013-1-12,58,54,50,54,53,49,99,95,85,29.93,29.84,4,1,4,0.00
2013-1-13,69,60,54,62,58,54,99,94,73,29.89,29.77,8,2,8,0.00
2013-1-14,64,57,46,62,56,45,99,95,87,30.00,29.79,8,2,8,0.00
2013-1-15,47,43,42,45,42,40,99,97,90,30.05,29.85,9,2,9,0.01
2013-1-16,46,42,38,46,42,37,99,98,92,29.87,29.67,8,1,8,0.00
2013-1-17,47,42,33,47,41,32,99,97,92,29.89,29.74,10,2,10,0.86
2013-1-18,48,35,28,39,26,6,99,73,19,30.30,29.83,9,1,9,0.41
2013-1-19,59,40,28,27,19,2,84,51,10,30.26,29.85,9,2,10,0.00
2013-1-20,64,48,36,24,16,1,62,34,10,29.86,29.65,14,3,14,0.00
2013-1-21,61,43,27,26,12,-12,75,37,10,29.86,29.55,10,2,10,0.00
2013-1-22,41,30,21,6,-16,-25,31,12,10,30.06,29.68,13,3,13,0.00
2013-1-23,38,27,15,1,-15,-25,49,17,10,30.14,29.85,10,2,13,0.00
2013-1-24,34,27,18,18,-5,-24,70,31,10,30.32,29.75,14,3,14,0.00
2013-1-25,28,21,14,17,3,-23,76,52,10,30.32,29.85,8,1,8,0.00
2013-1-26,36,26,15,22,15,8,77,65,43,30.20,29.84,4,0,4,0.09
2013-1-27,41,32,0,24,16,7,76,52,24,30.39,30.19,7,1,7,0.00
2013-1-28,60,42,30,39,30,18,85,63,35,30.29,29.88,11,2,11,0.17
2013-1-29,110,60,43,85,43,1,88,59,12,29.92,29.78,99,2,99,0.00
2013-1-30,78,69,60,60,55,10,81,64,10,29.79,29.07,108,12,108,0.05
2013-1-31,69,47,10,60,16,-31,88,35,10,29.73,28.98,23,7,23,1.06
2013-2-1,50,33,23,31,-2,-21,54,26,10,30.17,29.56,21,4,21,0.00
2013-2-2,41,30,17,12,-2,-18,68,30,10,30.17,29.77,11,2,11,0.00
2013-2-3,46,38,32,23,15,-2,55,39,14,29.78,29.58,9,2,9,0.00
2013-2-4,45,34,24,17,6,-9,67,36,10,29.91,29.70,8,2,8,0.00
2013-2-5,46,44,40,29,26,14,56,49,33,29.71,29.64,6,1,6,0.00
2013-2-6,61,47,33,30,21,4,75,42,10,30.10,29.68,7,2,8,0.00
2013-2-7,43,37,34,37,24,19,88,60,39,30.18,29.89,7,2,7,0.01
2013-2-8,51,42,39,40,38,35,93,85,57,29.89,29.50,11,4,11,0.00
2013-2-9,52,46,36,15,-2,-9,40,14,10,30.08,29.96,11,4,12,0.08
2013-2-10,54,46,32,21,3,-7,59,19,10,30.27,30.01,7,2,7,0.00
2013-2-11,64,58,41,56,49,21,89,72,38,30.01,29.57,13,4,13,0.01
2013-2-12,58,50,42,45,29,18,63,44,25,29.73,29.59,8,2,8,0.00
2013-2-13,49,46,42,42,38,27,89,73,45,29.69,29.37,6,1,6,0.17
2013-2-14,54,45,30,36,28,19,90,54,25,29.81,29.73,9,2,9,0.00
2013-2-15,67,48,30,36,22,2,88,49,10,29.83,29.66,10,2,10,0.00
2013-2-16,45,37,32,31,29,20,86,74,56,29.77,29.57,9,2,9,0.17
2013-2-17,36,30,24,20,-4,-21,64,28,10,30.01,29.61,18,3,18,0.01
2013-2-18,53,34,16,9,-2,-14,60,26,10,30.18,29.99,9,2,9,0.00
2013-2-19,53,43,34,47,29,4,87,58,23,30.00,29.55,16,3,16,0.05
2013-2-20,37,35,33,4,2,0,26,24,21,29.91,29.88,4,2,4,0.01
2013-2-21,48,38,24,15,-1,-10,59,21,10,30.07,29.91,8,3,8,0.00
2013-2-22,41,36,34,33,15,2,84,45,24,30.14,29.95,7,2,7,0.01
2013-2-23,43,40,37,39,37,32,90,87,83,29.95,29.56,6,1,6,0.25
2013-2-24,60,47,37,41,34,14,94,65,27,29.87,29.55,14,2,14,0.01
2013-2-25,47,38,30,22,10,-5,70,35,11,29.99,29.86,7,2,8,0.00
2013-2-26,54,42,29,52,36,20,97,81,67,29.98,29.30,15,2,15,0.52
2013-2-27,64,53,45,52,37,17,98,62,18,29.47,29.28,11,4,11,0.00
2013-2-28,51,46,40,24,14,0,43,28,13,29.54,29.42,13,4,13,0.00
2013-3-1,50,44,36,23,15,6,57,32,17,29.65,29.58,11,3,11,0.00
2013-3-2,42,39,36,17,13,7,45,34,24,29.67,29.58,8,2,8,0.00
2013-3-3,50,43,30,19,0,-8,63,19,10,29.67,29.55,10,3,10,0.00
2013-3-4,53,42,29,13,-2,-13,51,18,10,29.82,29.71,14,4,14,0.00
2013-3-5,51,39,27,35,17,-8,88,50,10,29.86,29.44,12,2,12,0.32
2013-3-6,41,38,34,39,33,26,93,82,55,29.72,29.13,21,6,21,1.10
2013-3-7,57,44,35,26,16,-2,66,37,10,29.93,29.71,17,4,17,0.00
2013-3-8,46,41,35,20,14,6,51,35,20,29.96,29.92,20,5,20,0.00
2013-3-9,67,52,34,23,9,-2,59,22,10,30.09,30.00,8,2,8,0.00
2013-3-10,68,49,28,34,16,0,75,39,10,30.10,29.97,8,2,8,0.00
2013-3-11,71,55,38,44,38,32,90,58,24,30.02,29.71,14,3,14,0.00
2013-3-12,75,61,48,62,50,28,96,69,22,29.73,29.46,15,4,15,0.85
2013-3-13,57,47,34,36,16,-2,80,35,10,29.85,29.67,15,4,15,0.00
2013-3-14,56,43,29,18,1,-11,48,20,10,29.95,29.80,13,4,13,0.00
2013-3-15,59,45,27,24,14,-4,62,33,10,29.90,29.58,10,2,10,0.00
2013-3-16,75,57,46,55,39,23,96,55,23,29.62,29.31,14,2,14,0.24
2013-3-17,53,42,38,48,36,32,85,79,71,30.03,29.62,8,2,10,0.09
2013-3-18,42,38,35,40,35,32,93,91,85,30.03,29.63,8,2,8,0.37
2013-3-19,69,50,37,40,24,-4,94,52,10,29.74,29.50,18,4,18,0.00
2013-3-20,61,48,31,18,0,-12,46,16,10,29.82,29.55,13,3,13,0.00
2013-3-21,44,38,30,19,-3,-16,46,19,10,29.71,29.48,14,4,14,0.00
2013-3-22,54,38,23,15,-1,-13,50,23,10,29.80,29.66,11,3,11,0.00
2013-3-23,62,47,31,24,11,-4,64,29,10,29.83,29.67,11,2,11,0.00
2013-3-24,39,34,33,31,27,19,90,78,45,29.72,29.37,7,1,7,0.08
2013-3-25,42,36,33,32,31,29,91,82,61,29.37,29.28,11,2,11,0.46
2013-3-26,52,42,29,31,19,4,88,45,16,29.78,29.49,10,3,10,0.00
2013-3-27,55,44,32,24,9,-5,65,31,10,29.93,29.78,12,4,14,0.00
2013-3-28,45,36,33,20,17,12,55,46,32,29.93,29.89,5,2,6,0.00
2013-3-29,62,52,36,26,10,0,57,24,10,30.06,29.91,11,2,11,0.00
2013-3-30,68,47,32,31,21,3,76,44,10,29.99,29.84,8,1,8,0.00
2013-3-31,61,52,46,53,44,26,91,75,46,29.82,29.50,8,1,8,0.32
2013-4-1,76,61,46,53,30,9,96,45,10,29.74,29.48,20,4,20,0.01
2013-4-2,57,46,34,23,7,-6,54,23,10,29.91,29.74,13,3,14,0.00
2013-4-3,58,49,45,3,-5,-9,16,10,10,30.05,29.91,11,2,11,0.00
2013-4-4,55,43,34,36,8,-11,90,31,10,30.06,29.64,9,2,9,0.50
2013-4-5,68,51,39,41,28,6,93,54,10,29.67,29.46,8,2,8,0.34
2013-4-6,64,52,44,33,8,-8,63,20,10,29.95,29.64,10,3,10,0.00
2013-4-7,75,52,34,35,25,12,78,44,10,29.94,29.67,17,4,17,0.00
2013-4-8,82,70,51,47,38,20,78,38,10,29.74,29.60,11,2,11,0.00
2013-4-9,88,87,85,27,25,23,12,10,10,29.61,29.60,10,4,10,0.00
2013-4-10,83,78,74,50,47,39,43,33,21,29.52,29.49,6,2,6,0.00
2013-4-11,89,79,67,56,48,33,68,36,16,29.55,29.38,16,4,16,0.05
2013-4-12,85,74,64,67,61,54,92,67,40,29.40,29.16,14,4,14,0.19
2013-4-13,78,66,52,55,29,12,71,30,10,29.57,29.29,9,2,9,0.00
2013-4-14,82,64,44,43,27,12,80,33,10,29.73,29.57,9,2,9,0.00
2013-4-15,71,60,53,55,48,22,87,66,21,29.89,29.71,9,2,9,0.11
2013-4-16,61,60,60,53,53,52,78,77,73,29.89,29.86,3,0,3,0.00
2013-4-17,88,78,-23,58,53,-46,86,45,20,29.83,29.70,8,2,8,1.51
2013-4-19,82,68,66,66,65,59,99,92,47,29.40,29.29,21,3,21,1.10
2013-4-20,68,58,48,65,29,4,99,44,10,29.90,29.37,8,2,8,0.11
2013-4-21,61,52,44,39,21,8,78,33,13,30.19,29.90,8,2,10,0.00
2013-4-22,61,49,38,37,31,26,75,53,27,30.17,29.96,9,3,9,0.00
2013-4-24,68,67,66,50,50,49,56,54,52,29.59,29.58,2,0,2,0.00
2013-4-25,66,60,52,52,36,12,64,43,14,29.91,29.58,9,2,9,0.00
2013-4-26,66,57,44,44,36,21,84,48,18,30.06,29.96,3,0,3,0.00
2013-4-27,58,53,49,43,38,32,67,57,38,30.03,29.92,2,0,2,0.00
2013-4-28,70,58,50,52,37,10,87,51,10,29.93,29.75,5,1,5,0.02
2013-4-29,58,56,56,58,55,53,99,95,92,29.74,29.68,2,0,2,0.77
2013-4-30,69,61,0,58,54,48,94,79,54,29.84,29.73,27,2,27,0.71
2013-5-1,62,60,58,57,39,31,96,49,31,30.00,29.84,4,1,4,0.01
2013-5-2,72,61,52,51,46,35,84,61,27,30.02,29.90,8,2,8,0.00
2013-5-3,72,58,46,51,40,12,91,58,10,29.95,29.88,11,2,11,0.00
2013-5-4,68,55,46,47,41,31,80,60,31,29.91,29.77,7,2,7,0.00
2013-5-5,64,56,47,49,43,37,77,63,48,29.80,29.71,7,2,7,0.00
2013-5-6,72,62,55,61,56,48,98,82,51,29.74,29.55,9,2,9,0.20
2013-5-7,78,69,59,66,52,7,99,62,20,29.58,29.44,9,2,9,0.26
2013-5-8,71,61,52,59,54,46,97,82,41,29.63,29.54,6,1,6,0.13
2013-5-9,63,56,54,58,55,54,99,96,79,29.65,29.57,2,0,2,0.00
2013-5-10,89,75,57,61,52,37,94,53,16,29.66,29.51,8,1,8,0.00
2013-5-11,84,73,66,62,58,51,77,60,33,29.55,29.37,7,1,7,0.00
2013-5-12,77,67,0,62,39,-35,97,48,10,29.67,29.37,9,2,9,0.04
2013-5-13,69,55,41,40,22,4,81,37,10,29.80,29.66,7,1,7,0.00
2013-5-14,77,57,38,35,21,4,77,34,10,29.86,26.80,6,1,6,0.00
2013-5-15,92,74,57,54,42,26,50,33,14,29.70,29.40,8,2,9,0.00
2013-5-16,91,82,66,58,46,29,71,34,12,29.50,29.43,5,2,5,0.00
2013-5-17,70,70,70,42,42,42,36,36,36,29.77,29.77,2,2,2,0.00
2013-5-18,118,64,60,68,62,42,99,93,37,29.80,29.74,13,0,13,1.17
2013-5-19,78,69,65,71,67,62,99,92,67,29.81,29.69,5,0,5,0.05
2013-5-20,84,73,66,71,67,61,99,83,46,29.75,29.62,5,1,5,0.01
2013-5-21,86,75,68,71,68,64,99,81,50,29.66,29.52,4,1,4,0.01
2013-5-22,90,78,70,68,65,-20,89,68,38,29.62,29.48,8,2,8,0.00
2013-5-23,81,73,68,73,67,63,99,83,57,29.57,29.40,4,1,4,1.23
2013-5-24,69,62,51,69,52,30,99,73,32,29.79,29.39,8,1,11,0.05
2013-5-25,74,57,44,42,26,6,67,36,10,29.87,29.72,8,2,8,0.00
2013-5-26,81,68,50,45,24,11,79,26,10,29.88,29.76,6,1,6,0.00
2013-5-27,80,63,47,55,48,39,87,62,24,29.88,29.77,4,0,4,0.00
2013-5-28,89,75,62,59,54,47,75,51,30,29.85,29.71,6,2,6,0.01
2013-5-29,94,80,68,66,57,42,88,48,17,29.80,29.72,6,1,6,0.00
2013-5-30,95,80,12,63,59,-34,80,52,10,29.86,29.76,5,1,5,0.00
2013-5-31,94,80,67,67,60,49,92,56,23,29.83,29.68,7,1,7,0.00
2013-6-1,96,80,70,68,60,48,88,56,20,29.73,29.59,7,1,7,0.00
2013-6-2,90,78,69,72,63,57,99,64,35,29.63,29.49,10,2,10,0.71
2013-6-3,86,75,69,74,69,61,99,84,44,29.57,29.42,4,0,4,0.71
2013-6-4,79,68,60,70,56,34,99,71,20,29.76,29.56,5,0,5,0.00
2013-6-5,85,70,57,60,49,33,96,54,17,30.04,29.67,8,1,8,0.00
2013-6-6,79,71,60,69,59,47,89,68,49,29.71,29.45,8,1,8,0.00
2013-6-7,74,71,69,74,71,69,99,98,89,29.47,29.11,5,1,5,2.65
2013-6-8,88,73,68,72,67,55,99,83,34,29.71,29.39,4,0,4,0.05
2013-6-9,80,77,76,70,69,68,81,76,65,29.73,29.70,3,0,3,0.00
2013-6-10,84,77,73,77,72,69,99,86,66,29.71,29.47,8,1,8,0.27
2013-6-11,86,78,71,73,66,55,99,71,35,29.51,29.43,7,1,7,0.00
2013-6-12,95,80,66,72,65,54,94,64,28,29.54,29.42,6,1,6,0.00
2013-6-13,90,77,70,75,71,63,97,83,44,29.44,29.17,6,1,6,0.12
2013-6-14,84,70,62,63,52,29,85,57,14,29.62,29.26,8,1,8,0.00
2013-6-15,91,73,58,60,53,33,94,57,13,29.72,29.61,5,1,5,0.00
2013-6-16,88,74,66,65,62,59,81,68,39,29.67,29.55,5,0,5,0.00
2013-6-17,89,77,70,74,69,62,99,78,41,29.65,29.51,5,1,5,0.20
2013-6-18,77,72,70,72,71,66,99,94,69,29.57,29.39,4,0,4,0.31
2013-6-19,69,67,65,67,66,65,99,97,89,29.77,29.48,4,0,4,0.01
2013-6-20,70,65,63,66,64,62,99,96,77,29.86,29.77,3,0,3,0.00
2013-6-21,70,61,57,64,57,54,95,88,78,29.89,29.85,2,0,2,0.00
2013-6-22,78,69,65,71,66,61,99,90,60,29.88,29.78,5,0,5,0.98
2013-6-23,87,78,71,77,71,67,99,83,54,29.82,29.71,4,1,4,0.09
2013-6-24,94,82,72,75,70,61,99,72,34,29.78,29.66,8,1,8,0.00
2013-6-25,98,84,73,73,68,56,93,64,26,29.70,29.54,4,1,4,0.00
2013-6-26,96,80,70,72,68,60,99,71,31,29.59,29.44,13,1,13,0.98
2013-6-27,90,76,69,77,70,59,99,85,36,29.50,29.29,8,1,8,0.14
2013-6-28,74,74,73,74,74,73,99,99,99,29.32,29.25,2,0,2,0.00
2013-6-29,79,75,72,74,72,70,99,90,73,29.34,29.18,2,0,2,0.01
2013-6-30,89,80,76,75,72,67,92,76,49,29.94,29.33,5,1,5,0.00
2013-7-1,78,76,72,78,74,71,99,95,85,30.07,29.94,8,1,8,0.48
2013-7-2,84,76,73,77,74,71,99,94,68,30.26,30.06,5,1,5,0.19
2013-7-3,77,74,72,76,74,71,99,99,99,30.27,30.23,2,0,2,0.00
2013-7-4,92,86,77,75,67,59,92,55,34,30.35,30.23,6,2,6,0.00
2013-7-5,80,76,72,74,72,71,99,87,75,30.32,30.24,4,0,4,0.00
2013-7-6,91,83,77,75,70,60,92,66,39,30.29,30.16,7,1,7,0.00
2013-7-7,94,83,74,73,70,63,91,68,37,30.21,30.07,6,1,6,0.00
2013-7-8,93,77,73,76,71,62,99,83,38,30.21,30.11,3,0,4,0.17
2013-7-9,92,82,73,77,72,64,99,76,45,30.18,30.08,6,1,6,0.00
2013-7-10,87,79,73,76,73,70,99,84,58,30.03,29.95,5,1,5,0.21
2013-7-11,83,76,72,78,74,72,99,93,69,30.04,29.92,4,1,4,0.89
2013-7-12,79,73,69,73,71,69,99,94,78,30.10,29.92,5,0,5,0.57
2013-7-13,87,76,70,75,72,70,99,88,60,30.31,30.08,4,0,4,0.00
2013-7-14,92,82,73,80,70,59,99,73,35,30.38,30.30,6,1,6,0.00
2013-7-15,99,82,73,77,71,57,99,75,27,30.38,30.26,4,0,4,0.00
2013-7-16,97,84,73,80,71,61,99,70,31,30.30,30.19,5,1,5,0.00
2013-7-18,92,84,80,77,74,65,88,73,41,30.12,30.06,0,0,0,0.00
2013-7-19,97,87,77,78,73,63,99,65,34,30.11,29.97,7,1,7,0.00
2013-7-20,95,85,78,74,72,66,85,67,40,30.02,29.91,4,0,7,0.00
2013-7-21,92,81,73,74,72,68,99,77,46,30.02,29.91,3,0,8,0.04
2013-7-22,90,79,72,81,75,70,99,90,53,29.99,29.83,2,0,4,0.11
2013-7-23,94,82,74,77,71,59,99,75,31,29.85,29.71,3,0,5,0.00
2013-7-24,92,80,72,75,70,56,99,74,30,29.94,29.73,2,0,5,0.40
2013-7-25,83,73,66,73,63,50,99,75,36,30.08,29.89,2,0,5,0.99
2013-7-26,91,73,61,67,59,40,99,68,17,30.16,30.07,2,0,4,0.00
2013-7-27,88,77,68,70,65,55,99,70,35,30.12,29.97,3,0,5,0.00
2013-7-28,89,78,72,72,67,58,94,69,38,30.04,29.93,4,0,9,0.00
2013-7-29,90,76,71,72,60,36,99,65,15,30.22,30.02,2,0,5,0.05
2013-7-30,92,77,65,69,59,39,99,62,17,30.29,30.18,2,0,4,0.00
2013-7-31,84,72,67,74,69,66,99,90,57,30.21,30.08,2,0,5,1.32
2013-8-1,87,74,69,77,72,68,99,93,58,30.08,29.86,2,0,5,0.11
2013-8-2,91,77,66,76,65,54,99,73,31,30.05,29.93,2,0,5,0.01
2013-8-3,89,78,68,74,68,53,99,75,30,30.04,29.95,2,0,4,0.00
2013-8-4,89,77,67,73,53,24,99,55,10,30.10,29.94,3,0,8,0.00
2013-8-5,86,72,60,65,54,29,99,63,14,30.16,30.07,2,0,4,0.00
2013-8-6,77,71,67,69,67,63,99,87,73,30.13,30.04,2,0,7,0.13
2013-8-7,91,80,70,71,64,50,99,65,28,30.15,30.07,2,0,5,0.00
2013-8-8,90,82,74,74,69,57,93,68,33,30.12,30.03,3,0,5,0.00
2013-8-9,94,85,76,75,71,63,94,68,37,30.06,29.94,4,0,8,0.00
2013-8-10,91,81,76,74,70,61,89,71,40,30.15,30.03,2,0,9,0.00
2013-8-11,87,79,71,77,74,70,99,84,59,30.14,29.85,2,0,4,1.62
2013-8-12,93,82,75,78,70,55,99,72,29,29.88,29.76,2,0,4,0.00
2013-8-13,89,81,75,76,73,64,99,78,44,29.77,29.58,3,0,4,0.00
2013-8-14,78,72,61,74,45,23,89,44,14,29.96,29.62,4,0,10,0.00
2013-8-15,80,67,58,59,52,35,90,63,20,30.02,29.93,2,0,4,0.00
2013-8-16,80,68,56,62,53,36,99,64,21,30.04,29.95,2,0,6,0.00
2013-8-17,82,72,62,70,60,53,99,71,40,30.07,30.00,2,0,7,0.25
2013-8-18,70,68,66,70,68,66,99,99,94,30.07,29.97,2,0,4,0.28
2013-8-19,75,70,65,72,68,65,99,96,81,30.06,29.93,2,0,3,0.08
2013-8-20,86,76,68,75,68,60,99,81,43,30.03,29.95,2,0,4,0.00
2013-8-21,89,77,69,79,72,65,99,86,46,30.06,29.92,2,0,5,0.21
2013-8-22,92,80,72,77,68,51,99,72,26,29.95,29.80,4,0,5,0.01
2013-8-23,83,72,64,75,70,63,99,93,61,29.97,29.77,2,0,5,0.07
2013-8-24,86,71,59,69,58,42,99,71,23,30.18,29.95,2,0,7,0.01
2013-8-25,83,70,61,69,53,24,99,64,12,30.26,30.13,3,0,8,0.00
2013-8-26,88,71,54,61,49,23,99,57,11,30.18,29.91,2,0,4,0.00
2013-8-27,92,77,64,76,62,23,97,64,10,29.92,29.74,2,0,4,0.00
2013-8-28,83,77,73,77,74,65,99,91,57,29.79,29.65,3,0,5,0.34
2013-8-29,88,77,72,77,71,58,99,83,37,29.87,29.64,2,0,6,0.01
2013-8-30,90,77,65,73,62,46,99,67,22,29.91,29.77,2,0,4,0.05
2013-8-31,92,80,70,71,65,55,99,65,29,29.81,29.66,3,0,7,0.00
2013-9-1,94,81,72,74,67,14,99,69,10,29.72,29.59,4,0,8,0.35
2013-9-2,91,80,72,75,70,56,99,77,31,29.68,29.59,2,0,4,0.01
2013-9-3,89,78,-10,76,66,-11,99,72,29,29.78,29.59,3,0,24,0.00
2013-9-4,85,75,67,72,53,36,99,51,19,29.94,29.78,3,0,4,0.00
2013-9-5,90,75,62,68,55,25,99,62,10,29.94,29.83,2,0,4,0.00
2013-9-6,83,73,5,62,47,-7,84,42,18,30.05,29.93,12,0,5,0.14
2013-9-7,84,70,57,63,53,38,98,63,22,30.00,29.81,3,0,4,0.00
2013-9-8,91,76,-2,69,57,-4,95,61,17,29.85,29.71,2,0,4,0.00
2013-9-9,90,76,71,73,63,53,93,66,41,30.01,29.84,2,0,5,0.00
2013-9-10,94,80,70,76,65,51,99,68,23,30.05,29.95,97,0,97,0.00
2013-9-11,94,81,71,69,62,46,92,58,20,30.03,29.90,3,0,49,0.00
2013-9-12,95,81,69,68,62,53,91,58,24,29.91,29.60,3,0,5,0.00
2013-9-13,86,76,68,69,50,20,96,50,10,29.77,29.57,3,0,7,0.00
2013-9-14,78,66,54,48,33,14,82,35,10,30.03,29.76,4,0,8,0.00
2013-9-15,84,65,48,52,39,18,92,51,10,30.11,29.96,3,0,5,0.00
2013-9-16,72,62,60,59,57,49,91,83,45,30.07,29.92,1,0,3,0.00
2013-9-17,72,63,54,56,44,23,94,57,17,30.25,30.07,2,0,7,0.00
2013-9-18,78,61,46,53,38,15,93,56,10,30.20,30.04,2,0,5,0.00
2013-9-19,81,66,51,56,45,26,94,55,14,30.07,29.94,2,0,5,0.00
2013-9-20,81,69,60,58,52,38,86,58,22,29.97,29.81,2,0,4,0.00
2013-9-21,80,69,60,69,58,8,99,73,10,29.85,29.57,4,0,7,0.53
2013-9-22,80,69,60,67,52,8,99,64,10,29.77,29.58,2,0,9,0.04
2013-9-23,72,62,51,51,38,22,86,47,15,29.95,29.77,3,0,6,0.00
2013-9-24,77,61,47,54,42,25,96,61,15,29.98,29.80,3,0,5,0.00
2013-9-25,78,63,48,59,47,15,98,66,10,29.83,29.73,49,0,49,0.00
2013-9-26,83,67,57,60,50,28,98,63,17,29.92,29.75,97,1,97,0.01
2013-9-27,73,59,52,53,49,35,98,73,25,30.08,29.91,2,0,5,0.00
2013-9-28,73,63,10,58,48,8,99,63,32,30.14,30.05,97,0,97,0.00
2013-9-29,78,65,53,60,52,0,99,68,10,30.05,29.90,4,0,6,0.00
2013-9-30,80,64,52,63,47,22,99,66,12,29.96,29.84,2,0,5,0.00
2013-10-1,85,66,52,60,51,35,99,67,17,29.95,29.85,3,0,6,0.00
2013-10-2,87,71,56,66,50,24,99,61,10,29.97,29.87,3,0,4,0.00
2013-10-3,88,72,57,65,54,32,99,64,14,29.98,29.89,2,0,4,0.00
2013-10-4,90,75,63,66,56,32,98,62,13,29.96,29.86,3,0,4,0.00
2013-10-5,93,72,62,70,60,28,99,74,10,29.95,29.85,2,0,4,0.00
2013-10-6,91,77,66,68,56,35,97,58,15,29.92,29.79,4,0,8,0.00
2013-10-7,81,72,61,71,66,50,99,85,54,29.91,29.70,5,0,11,0.71
2013-10-8,64,60,57,50,40,36,67,48,35,30.10,29.90,3,0,8,0.01
2013-10-9,60,58,56,59,52,40,99,80,48,30.09,29.95,3,0,8,1.37
2013-10-10,60,58,56,60,57,56,99,99,94,29.95,29.77,2,0,8,1.57
2013-10-11,65,61,59,63,61,58,99,98,87,29.80,29.73,2,0,6,0.06
2013-10-12,68,65,62,68,65,62,99,99,99,29.96,29.77,2,0,4,0.09
2013-10-13,68,64,63,67,64,62,99,99,95,30.12,29.94,2,0,6,0.20
2013-10-14,70,63,57,62,58,50,99,85,51,30.14,30.05,2,0,6,0.01
2013-10-15,72,62,53,60,55,49,99,80,45,30.07,29.92,3,0,5,0.00
2013-10-16,77,67,62,63,60,50,99,80,39,29.93,29.79,2,0,4,0.00
2013-10-17,77,69,61,66,60,55,99,78,48,29.81,29.65,3,0,5,0.00
2013-10-18,73,63,53,63,44,18,94,60,13,29.90,29.69,2,0,4,0.00
2013-10-19,66,60,52,64,58,51,99,96,86,29.86,29.66,2,0,4,0.02
2013-10-20,67,55,44,59,34,4,99,60,10,29.99,29.73,4,0,7,0.00
2013-10-21,71,53,38,48,32,8,97,58,10,30.04,29.85,4,0,9,0.00
2013-10-22,74,59,48,55,46,33,93,68,22,29.85,29.65,2,0,4,0.00
2013-10-23,63,55,46,57,37,21,97,55,21,29.80,29.52,3,0,7,0.02
2013-10-24,56,46,36,37,21,-1,80,45,10,30.03,29.80,4,0,8,0.00
2013-10-25,60,44,33,29,16,-3,72,41,10,30.21,30.01,4,0,9,0.00
2013-10-26,62,45,29,31,16,-2,83,43,10,30.21,29.85,6,0,11,0.00
2013-10-27,68,54,40,37,20,5,77,34,10,30.00,29.85,4,0,7,0.00
2013-10-28,69,53,38,46,34,14,91,58,12,30.12,29.99,3,0,4,0.00
2013-10-29,72,57,51,50,40,10,87,60,10,30.22,30.11,2,0,5,0.00
2013-10-30,68,58,51,56,51,42,98,78,51,30.18,30.01,2,0,4,0.01
2013-10-31,75,65,54,61,53,42,99,71,31,30.05,29.73,4,0,8,0.00
2013-11-1,75,70,68,69,63,54,99,79,56,29.74,29.49,5,1,10,0.04
2013-11-2,75,64,56,67,42,11,99,57,10,29.76,29.49,4,0,6,0.01
2013-11-3,63,51,38,37,21,-2,72,39,10,30.26,29.76,4,0,10,0.00
2013-11-4,54,44,36,26,13,-5,60,33,10,30.48,30.26,3,0,6,0.00
2013-11-5,61,50,39,45,30,18,74,48,28,30.45,30.31,2,0,4,0.00
2013-11-6,71,59,46,53,45,35,95,64,27,30.32,29.97,3,0,5,0.00
2013-11-7,69,61,46,64,51,17,99,73,26,29.97,29.72,4,0,8,0.11
2013-11-8,58,45,33,28,13,-4,67,35,10,30.20,29.94,6,0,11,0.00
2013-11-9,60,44,28,30,14,-3,79,40,10,30.25,29.97,5,0,8,0.00
2013-11-10,71,54,40,23,9,-6,50,20,10,30.12,29.83,6,1,12,0.00
2013-11-11,60,46,32,24,10,-4,63,27,10,30.22,29.96,4,0,8,0.00
2013-11-12,52,43,35,25,4,-16,49,23,10,30.28,29.85,4,1,13,0.00
2013-11-13,47,35,26,11,-4,-16,50,21,10,30.38,30.28,4,0,10,0.00
2013-11-14,63,42,24,12,3,-11,56,26,10,30.30,30.13,4,0,8,0.00
2013-11-15,61,48,32,29,10,-6,50,25,10,30.19,30.07,4,0,7,0.00
2013-11-16,64,56,50,55,48,29,95,76,40,30.17,30.08,2,0,4,0.05
2013-11-17,71,62,52,63,53,46,99,74,41,30.10,29.68,4,0,7,0.00
2013-11-18,73,65,51,67,32,-2,96,42,10,29.79,29.59,7,1,11,0.00
2013-11-19,55,48,39,19,3,-6,43,17,10,30.22,29.78,5,1,11,0.00
2013-11-20,53,44,37,27,16,-1,56,33,11,30.38,30.21,4,1,8,0.00
2013-11-21,61,50,41,43,33,26,80,53,29,30.39,30.25,3,0,5,0.00
2013-11-22,74,61,49,57,44,37,81,56,27,30.26,29.86,6,1,11,0.00
2013-11-23,63,55,43,57,16,-10,83,30,10,30.01,29.86,4,1,8,0.00
2013-11-24,43,32,24,7,-17,-24,30,11,10,30.42,30.01,8,2,14,0.00
2013-11-25,40,30,18,1,-12,-20,43,18,10,30.48,30.25,4,0,8,0.00
2013-11-26,64,43,34,64,25,-16,99,63,10,30.27,29.39,7,0,13,0.97
2013-11-27,64,42,34,64,36,3,99,84,25,29.95,29.35,5,1,11,0.71
2013-11-28,45,33,25,15,0,-14,62,28,10,30.36,29.95,5,0,10,0.00
2013-11-29,49,34,23,22,4,-12,74,37,10,30.56,30.33,4,0,8,0.00
2013-11-30,48,37,26,22,10,-5,61,37,11,30.56,30.23,3,0,6,0.00
2013-12-1,58,39,25,25,14,-3,78,45,10,30.24,29.88,4,0,6,0.00
2013-12-2,61,42,28,31,16,-1,80,47,10,29.88,29.70,4,0,7,0.00
2013-12-3,62,45,31,35,23,2,81,50,10,29.87,29.73,5,0,8,0.05
2013-12-4,59,53,46,54,47,34,98,81,62,29.95,29.86,3,0,5,0.11
2013-12-5,67,61,55,64,60,54,99,96,88,29.97,29.85,4,0,8,0.08
2013-12-6,67,60,47,65,57,43,99,89,70,30.04,29.79,4,1,8,0.01
2013-12-7,48,42,36,44,27,12,98,60,29,30.47,30.00,5,1,12,0.32
2013-12-8,36,34,32,32,23,6,94,69,29,30.51,30.24,4,1,8,0.64
2013-12-9,44,38,33,44,38,32,99,97,94,30.24,29.99,2,0,4,0.19
2013-12-10,43,38,30,42,35,5,99,91,30,30.24,29.91,24,0,62,0.20
2013-12-11,50,35,24,28,12,-9,92,50,10,30.39,30.20,4,0,8,0.00
2013-12-12,73,28,0,63,20,-10,98,65,10,30.38,29.55,2,0,4,0.00
2013-12-13,51,35,22,18,2,-15,57,30,10,29.93,29.81,6,0,10,0.00
2013-12-14,47,40,34,45,27,-7,99,66,10,29.89,29.28,4,0,8,0.84
2013-12-15,59,45,38,43,23,-1,98,55,10,29.58,29.22,6,1,10,0.08
2013-12-16,50,40,31,25,14,-5,65,39,10,29.73,29.57,4,0,8,0.00
2013-12-17,60,43,32,39,26,3,91,59,10,29.70,29.46,5,0,12,0.21
2013-12-18,48,39,30,39,14,-10,93,49,10,29.82,29.53,6,1,11,0.06
2013-12-19,66,47,0,25,5,-5,59,24,10,29.82,29.72,4,1,99,0.00
2013-12-20,98,54,0,45,25,-6,61,35,10,29.78,29.62,106,1,106,0.00
2013-12-21,119,62,-9,80,44,-31,78,53,25,29.69,29.56,5,1,10,0.00
2013-12-22,78,68,0,63,61,56,99,78,47,29.65,29.49,4,2,17,0.27
2013-12-23,68,60,45,66,57,20,99,90,36,30.06,29.53,6,2,9,1.54
2013-12-24,48,40,30,23,0,-20,43,20,10,30.35,30.05,49,2,49,0.00
2013-12-25,64,25,23,63,-14,-24,99,18,10,30.47,29.44,3,0,6,0.00
2013-12-26,54,35,20,19,6,-26,71,40,10,29.97,29.75,5,0,9,0.00
2013-12-27,56,36,23,25,9,-10,72,42,10,30.07,29.94,4,0,6,0.00
2013-12-28,64,43,26,21,8,-6,65,31,10,29.99,29.76,5,0,11,0.00
2013-12-29,58,48,42,58,42,4,99,84,16,29.77,29.17,6,1,12,1.12
2013-12-30,58,46,39,42,28,12,99,57,17,29.76,29.46,4,0,6,0.00
2013-12-31,51,40,29,28,12,-9,65,36,10,29.94,29.73,8,1,14,0.00
2014-1-1,52,36,25,26,13,-6,76,46,10,30.03,29.74,5,0,9,0.00
2014-1-2,48,37,29,39,28,17,95,70,29,29.74,29.14,3,0,7,0.38